Terminal Aerodrome Forecast
Issued by NWS

Home | Current Version | Previous Version | Text Only | Print | Product List | Glossary On
Versions: 1 2 3 4 5 6 7 8 9 10 11 12 13 14 15 16
792
FTUS46 KLOX 300558
TAFSBA
TAF
KSBA 300558Z 3006/0106 33006KT P6SM SCT250 WS015/35030KT
     FM300800 01006KT P6SM SCT250 WS015/35035KT
      TEMPO 3008/3010 01014G20KT
     FM301600 16008KT P6SM SCT014 SCT030
     FM301800 22009KT P6SM SCT020 SCT040
     FM302100 25012G22KT P6SM FEW040
     FM010300 VRB03KT P6SM SKC=

USA.gov is the U.S. government's official web portal to all federal, state and local government web resources and services.